Time;durP1;ratioP1;P1;durP2;ratioP2;P2;SDS_P1;SDS_P2;PMS_P1;PMS_P2;Temp;Humidity;BMP_temperature;BMP_pressure;BME280_temperature;BME280_humidity;BME280_pressure;Samples;Min_cycle;Max_cycle;Signal;HPM_P1;HPM_P2
2023/05/20 00:02:24;;;;;;;7.70;3.77;;;;;;;15.68;58.90;99151.09;4958750;28;39965;-78
2023/05/20 00:04:55;;;;;;;3.90;3.37;;;;;;;15.67;59.73;99165.41;4974830;28;42679;-77
2023/05/20 00:07:31;;;;;;;4.63;3.50;;;;;;;15.63;59.54;99160.41;4975453;28;42510;-78
2023/05/20 00:09:59;;;;;;;4.20;3.80;;;;;;;15.57;59.91;99155.56;4975558;28;42437;-79
2023/05/20 00:12:27;;;;;;;4.90;3.53;;;;;;;15.58;59.70;99154.59;4975437;28;39688;-78
2023/05/20 00:14:54;;;;;;;4.67;3.43;;;;;;;15.58;59.78;99152.75;4993129;28;41692;-79
2023/05/20 00:17:25;;;;;;;4.07;3.00;;;;;;;15.60;59.46;99152.66;4975411;28;42593;-80
2023/05/20 00:19:52;;;;;;;3.60;3.30;;;;;;;15.62;59.65;99150.72;4992805;28;41773;-79
2023/05/20 00:22:20;;;;;;;5.77;3.27;;;;;;;15.57;60.01;99143.09;4992929;28;41198;-78
2023/05/20 00:24:48;;;;;;;3.80;3.40;;;;;;;15.63;60.38;99158.59;4991278;28;41784;-77
2023/05/20 00:27:15;;;;;;;5.03;3.50;;;;;;;15.65;60.64;99155.81;4957895;28;41809;-80
2023/05/20 00:29:43;;;;;;;4.40;3.20;;;;;;;15.65;60.44;99155.81;4974203;28;42454;-76
2023/05/20 00:32:10;;;;;;;4.10;3.50;;;;;;;15.64;60.84;99148.78;4974519;28;41856;-79
2023/05/20 00:34:39;;;;;;;3.83;3.43;;;;;;;15.66;60.64;99139.69;4974470;28;42784;-77
2023/05/20 00:37:07;;;;;;;4.03;3.40;;;;;;;15.70;60.66;99137.63;4957666;28;41889;-77
2023/05/20 00:39:35;;;;;;;3.87;3.57;;;;;;;15.70;60.96;99137.63;4974041;28;41999;-80
2023/05/20 00:42:02;;;;;;;5.00;4.00;;;;;;;15.59;60.65;99129.59;4958131;28;39747;-78
2023/05/20 00:44:30;;;;;;;4.23;3.70;;;;;;;15.64;61.07;99133.59;4973878;28;40770;-79
2023/05/20 00:46:57;;;;;;;3.53;3.10;;;;;;;15.68;60.75;99129.72;4974052;28;43674;-80
2023/05/20 00:49:25;;;;;;;5.10;3.10;;;;;;;15.71;60.59;99131.28;4957540;28;41215;-79
2023/05/20 00:51:54;;;;;;;4.40;3.83;;;;;;;15.72;60.87;99130.31;4974334;28;41850;-79
2023/05/20 00:54:22;;;;;;;4.20;3.17;;;;;;;15.75;60.03;99135.41;4957690;28;40696;-78
2023/05/20 00:56:49;;;;;;;3.83;3.40;;;;;;;15.77;60.15;99128.16;4957228;28;42725;-79
2023/05/20 00:59:17;;;;;;;4.97;4.00;;;;;;;15.77;60.81;99125.47;4957226;28;42349;-77
2023/05/20 01:01:45;;;;;;;6.20;4.33;;;;;;;15.77;60.81;99122.81;4973974;28;41722;-78
2023/05/20 01:04:12;;;;;;;3.67;3.37;;;;;;;15.77;60.77;99117.47;4957182;28;41710;-78
2023/05/20 01:06:40;;;;;;;4.60;3.63;;;;;;;15.78;60.84;99117.34;4958550;28;43086;-80
2023/05/20 01:09:09;;;;;;;5.33;3.70;;;;;;;15.79;60.71;99116.38;4974638;28;42153;-78
2023/05/20 01:11:42;;;;;;;4.50;4.10;;;;;;;15.78;61.13;99117.34;4974835;28;42179;-78
2023/05/20 01:14:12;;;;;;;4.37;3.60;;;;;;;15.78;60.93;99116.50;4974903;28;41590;-77
2023/05/20 01:16:42;;;;;;;3.90;3.40;;;;;;;15.78;60.89;99113.81;4958457;28;41735;-77
2023/05/20 01:19:32;;;;;;;5.03;3.83;;;;;;;15.80;61.02;99117.22;4974482;28;42241;-77
2023/05/20 01:22:03;;;;;;;4.90;3.50;;;;;;;15.51;60.81;99065.25;4958957;28;39933;-77
2023/05/20 01:28:21;;;;;;;4.30;3.90;;;;;;;15.81;61.35;99100.22;4958353;28;41843;-79
2023/05/20 01:30:52;;;;;;;3.77;3.33;;;;;;;15.84;61.41;99101.78;4974468;28;42363;-78
2023/05/20 01:33:23;;;;;;;4.37;3.97;;;;;;;15.72;61.67;99082.25;4972203;28;41008;-77
2023/05/20 01:35:51;;;;;;;4.50;4.10;;;;;;;15.70;61.37;99089.56;4974077;28;42135;-79
2023/05/20 01:38:19;;;;;;;5.53;3.90;;;;;;;15.88;61.21;99103.25;4976444;28;41724;-78
2023/05/20 01:40:48;;;;;;;7.63;4.07;;;;;;;15.89;61.38;99105.78;4994068;28;43232;-78
2023/05/20 01:43:17;;;;;;;4.60;4.20;;;;;;;15.89;61.38;99105.78;4976677;28;40787;-79
2023/05/20 01:45:47;;;;;;;6.47;4.60;;;;;;;15.88;61.75;99106.78;4960658;28;43241;-78
2023/05/20 01:48:15;;;;;;;4.80;3.87;;;;;;;15.89;61.33;99100.47;4976647;28;42865;-77
2023/05/20 01:50:43;;;;;;;4.77;4.27;;;;;;;15.93;61.27;99103.75;4960451;28;41184;-79
2023/05/20 01:53:12;;;;;;;4.07;3.67;;;;;;;15.95;61.53;99107.97;4976361;28;41956;-77
2023/05/20 01:55:39;;;;;;;5.13;4.03;;;;;;;15.88;61.92;99096.09;4960234;28;40755;-78
2023/05/20 01:58:07;;;;;;;4.70;4.13;;;;;;;15.82;61.58;99078.72;4976343;28;42868;-79
2023/05/20 02:00:36;;;;;;;5.23;4.47;;;;;;;15.96;61.42;99108.81;4976612;28;42338;-80
2023/05/20 02:03:06;;;;;;;5.33;4.40;;;;;;;15.96;61.96;99104.31;4976346;28;39485;-78
2023/05/20 02:05:36;;;;;;;4.00;3.70;;;;;;;15.92;61.59;99089.53;4977273;28;40755;-80
2023/05/20 02:08:05;;;;;;;4.80;4.30;;;;;;;15.58;61.68;99021.13;4960881;28;41534;-78
2023/05/20 02:10:33;;;;;;;5.03;3.90;;;;;;;15.86;62.10;99073.13;4960907;28;41019;-78
2023/05/20 02:13:01;;;;;;;4.60;4.20;;;;;;;15.99;62.02;99092.53;4977315;28;41876;-79
2023/05/20 02:15:28;;;;;;;6.07;4.63;;;;;;;15.96;62.04;99096.31;4977513;28;41856;-77
2023/05/20 02:17:57;;;;;;;4.43;3.83;;;;;;;15.96;61.80;99096.31;4960606;28;42093;-77
2023/05/20 02:20:26;;;;;;;4.90;4.50;;;;;;;15.86;61.97;99076.66;4994645;28;42411;-78
2023/05/20 02:22:54;;;;;;;4.40;4.00;;;;;;;15.97;62.20;99098.00;4976890;28;41142;-77
2023/05/20 02:25:22;;;;;;;5.23;4.10;;;;;;;15.99;61.66;99103.22;4977218;28;41904;-77
2023/05/20 02:27:50;;;;;;;5.20;4.70;;;;;;;15.90;61.72;99090.63;4977117;28;43485;-79
2023/05/20 02:30:17;;;;;;;6.13;4.47;;;;;;;15.99;62.21;99095.22;4976912;28;42390;-77
2023/05/20 02:32:45;;;;;;;4.80;4.33;;;;;;;15.98;62.21;99099.72;4976998;28;40985;-78
2023/05/20 02:35:13;;;;;;;5.20;4.53;;;;;;;15.96;62.44;99087.44;4958742;28;40911;-79
2023/05/20 02:37:43;;;;;;;4.13;3.73;;;;;;;16.00;61.95;99087.09;4959272;28;41432;-79
2023/05/20 02:40:12;;;;;;;5.57;4.77;;;;;;;16.01;62.14;99083.44;4976012;28;42839;-79
2023/05/20 02:42:40;;;;;;;4.57;4.17;;;;;;;16.02;62.32;99085.13;4992966;28;40888;-79
2023/05/20 02:45:09;;;;;;;5.77;4.40;;;;;;;16.03;62.18;99081.50;4960025;28;40742;-78
2023/05/20 02:47:37;;;;;;;5.73;4.17;;;;;;;16.03;61.87;99075.31;4974268;28;42723;-78
2023/05/20 02:50:07;;;;;;;4.60;4.20;;;;;;;15.95;62.31;99059.88;4975839;28;42734;-78
2023/05/20 02:52:35;;;;;;;6.00;4.47;;;;;;;15.98;63.08;99078.34;4975550;28;41564;-79
2023/05/20 02:55:06;;;;;;;4.87;4.33;;;;;;;16.00;62.47;99079.06;4959309;28;40720;-79
2023/05/20 02:57:36;;;;;;;6.17;4.63;;;;;;;16.01;62.95;99078.09;4972634;28;42726;-78
2023/05/20 03:00:06;;;;;;;5.43;4.70;;;;;;;16.03;62.95;99075.31;4972796;28;42324;-80
2023/05/20 03:02:34;;;;;;;5.77;4.97;;;;;;;15.99;62.90;99074.69;4975423;28;41130;-79
2023/05/20 03:05:02;;;;;;;6.30;4.57;;;;;;;15.96;63.06;99074.09;4959893;28;40582;-78
2023/05/20 03:07:31;;;;;;;6.83;5.33;;;;;;;16.00;62.90;99076.41;4976580;28;43173;-77
2023/05/20 03:09:58;;;;;;;6.47;4.77;;;;;;;16.02;63.19;99087.81;4960152;28;42376;-79
2023/05/20 03:12:28;;;;;;;4.97;4.47;;;;;;;16.01;63.16;99072.75;4960485;28;40003;-78
2023/05/20 03:14:57;;;;;;;5.47;4.53;;;;;;;16.03;62.96;99076.16;4976403;28;41847;-79
2023/05/20 03:17:25;;;;;;;5.57;4.50;;;;;;;16.04;63.20;99075.19;4959864;28;43038;-77
2023/05/20 03:19:53;;;;;;;4.93;4.40;;;;;;;16.05;63.08;99070.69;4976075;28;42857;-79
2023/05/20 03:22:21;;;;;;;6.63;4.50;;;;;;;16.02;63.24;99069.09;4976492;28;40946;-77
2023/05/20 03:24:49;;;;;;;5.57;4.83;;;;;;;16.00;63.50;99071.06;4958299;28;40739;-78
2023/05/20 03:27:16;;;;;;;8.00;4.57;;;;;;;16.01;63.38;99066.56;4975026;28;42909;-78
2023/05/20 03:29:47;;;;;;;6.30;4.47;;;;;;;15.98;63.58;99077.50;4975172;28;42401;-80
2023/05/20 03:32:14;;;;;;;5.73;4.77;;;;;;;15.97;63.56;99076.63;4958999;28;39805;-79
2023/05/20 03:34:42;;;;;;;5.63;5.07;;;;;;;15.97;63.59;99079.31;4958498;28;43059;-80
2023/05/20 03:37:10;;;;;;;5.60;4.50;;;;;;;15.87;63.64;99070.34;4974682;28;41758;-77
2023/05/20 03:39:38;;;;;;;6.13;5.50;;;;;;;15.95;64.06;99083.91;4958336;28;41177;-79
2023/05/20 03:42:06;;;;;;;5.10;4.60;;;;;;;15.95;63.89;99083.91;4958764;28;40084;-78
2023/05/20 03:44:35;;;;;;;5.50;4.87;;;;;;;15.95;63.88;99086.59;4974455;28;41833;-77
2023/05/20 03:47:05;;;;;;;6.10;5.27;;;;;;;15.96;64.13;99085.63;4974846;28;42801;-78
2023/05/20 03:49:33;;;;;;;5.67;5.17;;;;;;;15.98;63.91;99089.03;4991095;28;43184;-77
2023/05/20 03:52:02;;;;;;;5.63;5.07;;;;;;;15.87;63.97;99070.34;4974876;28;40809;-79
2023/05/20 03:54:30;;;;;;;5.70;5.20;;;;;;;15.84;64.03;99064.41;4974447;28;42748;-79
2023/05/20 03:56:59;;;;;;;6.57;4.93;;;;;;;15.97;64.18;99086.47;4958461;28;41667;-79
2023/05/20 03:59:27;;;;;;;5.53;5.03;;;;;;;15.99;63.87;99092.53;4973845;28;42326;-79
2023/05/20 04:01:57;;;;;;;5.83;4.80;;;;;;;16.01;63.76;99094.13;4974649;28;38993;-77
2023/05/20 04:04:26;;;;;;;5.50;5.00;;;;;;;16.01;63.86;99094.13;4958431;28;41046;-79
2023/05/20 04:06:55;;;;;;;5.10;4.57;;;;;;;15.98;63.76;99086.34;4959485;28;42629;-77
2023/05/20 04:09:23;;;;;;;6.33;5.50;;;;;;;16.01;64.00;99088.78;4975246;28;43320;-78
2023/05/20 04:11:50;;;;;;;6.00;4.63;;;;;;;16.03;63.96;99092.19;4975629;28;40987;-78
2023/05/20 04:14:18;;;;;;;6.50;5.70;;;;;;;16.03;64.24;99081.50;4959319;28;40710;-77
2023/05/20 04:16:47;;;;;;;6.50;5.30;;;;;;;16.03;64.29;99092.19;4975401;28;42711;-78
2023/05/20 04:19:15;;;;;;;5.77;5.17;;;;;;;16.05;64.29;99090.25;4975285;28;42051;-79
2023/05/20 04:21:45;;;;;;;5.70;4.87;;;;;;;15.99;64.06;99074.69;4975426;28;41424;-78
2023/05/20 04:24:13;;;;;;;6.23;5.63;;;;;;;16.01;63.92;99077.25;4975151;28;41588;-79
2023/05/20 04:26:41;;;;;;;6.17;5.30;;;;;;;15.98;64.02;99081.00;4959289;28;41790;-80
2023/05/20 04:29:10;;;;;;;5.90;5.40;;;;;;;16.12;64.26;99091.44;4975271;28;42370;-77
2023/05/20 04:31:38;;;;;;;5.93;5.33;;;;;;;16.12;64.34;99088.75;4959042;28;40592;-80
2023/05/20 04:34:06;;;;;;;5.33;4.83;;;;;;;16.13;64.10;99092.28;4958830;28;40806;-78
2023/05/20 04:36:37;;;;;;;6.03;5.33;;;;;;;16.12;64.22;99077.22;4975165;28;42899;-79
2023/05/20 04:39:07;;;;;;;5.80;5.30;;;;;;;16.20;64.36;99092.59;4958537;28;41448;-80
2023/05/20 04:41:36;;;;;;;5.97;4.77;;;;;;;15.97;63.94;99044.59;4958880;28;41201;-80
2023/05/20 04:44:05;;;;;;;7.33;5.00;;;;;;;16.28;63.65;99092.84;4972589;28;42619;-79
2023/05/20 04:46:32;;;;;;;5.50;5.00;;;;;;;16.29;63.83;99097.22;4974091;28;43776;-76
2023/05/20 04:49:00;;;;;;;5.80;5.20;;;;;;;16.31;63.41;99081.91;4957422;28;42516;-77
2023/05/20 04:51:28;;;;;;;5.77;5.20;;;;;;;16.34;63.61;99085.16;4958147;28;40996;-78
2023/05/20 04:53:57;;;;;;;5.87;5.37;;;;;;;16.37;63.55;99089.41;4957319;28;40772;-79
2023/05/20 04:56:27;;;;;;;5.80;5.20;;;;;;;16.43;64.00;99094.28;4973575;28;41745;-79
2023/05/20 04:58:55;;;;;;;6.23;5.63;;;;;;;16.50;63.67;99095.44;4989888;28;42442;-78
2023/05/20 05:01:22;;;;;;;6.10;5.50;;;;;;;16.54;63.48;99096.91;4991274;28;41940;-78
2023/05/20 05:03:50;;;;;;;6.43;5.83;;;;;;;16.64;63.33;99097.00;4957492;28;42033;-78
2023/05/20 05:06:18;;;;;;;5.73;5.13;;;;;;;16.70;62.63;99097.31;4974903;28;43742;-79
2023/05/20 05:08:46;;;;;;;6.10;5.60;;;;;;;16.77;62.23;99098.53;4958431;28;41301;-77
2023/05/20 05:11:14;;;;;;;5.90;5.30;;;;;;;16.86;62.40;99097.75;4959720;28;39964;-77
2023/05/20 05:13:43;;;;;;;5.97;5.40;;;;;;;16.91;62.16;99100.03;4978036;28;41943;-78
2023/05/20 05:16:12;;;;;;;6.27;5.67;;;;;;;16.96;61.97;99103.16;4978331;28;42459;-77
2023/05/20 05:18:40;;;;;;;5.97;5.47;;;;;;;17.08;61.46;99107.47;4961819;28;41365;-79
2023/05/20 05:21:07;;;;;;;7.10;5.97;;;;;;;17.20;60.91;99110.91;4978132;28;40961;-78
2023/05/20 05:23:36;;;;;;;6.33;5.73;;;;;;;17.13;61.10;99077.66;4977876;28;41768;-79
2023/05/20 05:26:04;;;;;;;5.73;5.23;;;;;;;17.44;60.33;99095.41;4977832;28;42716;-78
2023/05/20 05:28:33;;;;;;;6.47;5.87;;;;;;;17.60;60.31;99089.59;4977645;28;42532;-76
2023/05/20 05:31:02;;;;;;;6.23;5.53;;;;;;;17.75;59.76;99090.09;4977897;28;41900;-77
2023/05/20 05:33:31;;;;;;;6.73;6.13;;;;;;;17.95;59.25;99097.22;4961014;28;40636;-77
2023/05/20 05:36:00;;;;;;;5.90;5.30;;;;;;;18.11;59.17;99096.69;4975836;28;42620;-77
2023/05/20 05:38:28;;;;;;;7.80;7.03;;;;;;;18.23;58.83;99096.44;4976618;28;42278;-78
2023/05/20 05:40:56;;;;;;;6.43;5.70;;;;;;;18.39;58.15;99087.88;4976708;28;40904;-78
2023/05/20 05:43:24;;;;;;;5.80;5.30;;;;;;;18.62;58.57;99081.28;4976190;28;41682;-77
2023/05/20 05:45:52;;;;;;;6.10;5.50;;;;;;;18.82;57.77;99092.84;4960348;28;42657;-77
2023/05/20 05:48:23;;;;;;;7.37;6.67;;;;;;;18.93;56.44;99100.75;4976543;28;43339;-76
2023/05/20 05:50:51;;;;;;;6.77;6.10;;;;;;;19.08;56.16;99103.00;4976535;28;41157;-76
2023/05/20 05:53:21;;;;;;;6.30;5.70;;;;;;;19.18;56.23;99071.59;4976631;28;41855;-77
2023/05/20 05:55:50;;;;;;;6.90;6.30;;;;;;;19.08;54.97;99049.28;4976440;28;42725;-79
2023/05/20 05:58:18;;;;;;;6.23;5.63;;;;;;;19.44;55.14;99091.44;4992705;28;42500;-78
2023/05/20 06:00:46;;;;;;;6.03;5.53;;;;;;;19.34;54.81;99093.31;4976270;28;41902;-80
2023/05/20 06:03:14;;;;;;;7.53;6.63;;;;;;;19.15;55.12;99083.50;4976484;28;42690;-78
2023/05/20 06:05:47;;;;;;;7.10;6.50;;;;;;;18.92;55.45;99082.94;4960582;28;42741;-76
2023/05/20 06:08:15;;;;;;;6.60;6.00;;;;;;;18.91;55.75;99083.97;4975240;28;42050;-79
2023/05/20 06:10:48;;;;;;;7.20;6.50;;;;;;;18.97;55.66;99078.00;4961061;28;39814;-76
2023/05/20 06:13:16;;;;;;;7.73;6.90;;;;;;;18.96;55.61;99073.63;4960872;28;41069;-75
2023/05/20 06:15:45;;;;;;;6.87;6.17;;;;;;;18.88;55.47;99059.22;4994691;28;42831;-77
2023/05/20 06:18:13;;;;;;;6.73;6.07;;;;;;;18.89;56.09;99068.97;4977020;28;42154;-76
2023/05/20 06:20:40;;;;;;;7.17;6.47;;;;;;;18.77;56.54;99065.59;4960830;28;40068;-80
2023/05/20 06:23:10;;;;;;;8.20;7.37;;;;;;;18.58;56.24;99073.66;4960479;28;40434;-79
2023/05/20 06:25:51;;;;;;;8.63;7.13;;;;;;;18.48;57.04;99067.41;4958906;28;41829;-79
2023/05/20 06:28:21;;;;;;;7.77;6.97;;;;;;;18.41;56.87;99072.50;4975890;28;43274;-79
2023/05/20 06:30:49;;;;;;;6.83;6.23;;;;;;;18.42;57.39;99073.34;4959809;28;40927;-77
2023/05/20 06:33:19;;;;;;;7.50;6.80;;;;;;;18.47;57.16;99063.88;4959521;28;40763;-77
2023/05/20 06:35:47;;;;;;;7.47;6.63;;;;;;;18.59;57.17;99065.47;4959648;28;42092;-79
2023/05/20 06:38:16;;;;;;;7.00;6.40;;;;;;;18.70;56.98;99064.47;4959545;28;41676;-79
2023/05/20 06:40:44;;;;;;;7.97;7.13;;;;;;;18.76;56.98;99066.59;4975484;28;40837;-77
2023/05/20 06:43:11;;;;;;;7.13;6.53;;;;;;;18.85;56.48;99070.25;4959257;28;41523;-79
2023/05/20 06:46:05;;;;;;;8.27;6.97;;;;;;;19.03;55.97;99063.16;4973177;28;42790;-78
2023/05/20 06:48:51;;;;;;;8.13;7.33;;;;;;;19.33;55.83;99076.38;4959531;28;42433;-77
2023/05/20 06:51:19;;;;;;;7.40;6.67;;;;;;;19.78;55.49;99064.91;4959689;28;40027;-77
2023/05/20 06:53:51;;;;;;;8.03;7.23;;;;;;;20.30;53.87;99066.00;4975652;28;42099;-78
2023/05/20 06:56:18;;;;;;;8.00;7.30;;;;;;;20.96;52.56;99078.25;4975564;28;43772;-79
2023/05/20 06:58:46;;;;;;;7.00;6.33;;;;;;;21.32;51.95;99087.13;4959165;28;42207;-79
2023/05/20 07:01:14;;;;;;;7.43;6.70;;;;;;;21.50;50.70;99093.34;4975520;28;40837;-77
2023/05/20 07:03:43;;;;;;;6.77;6.17;;;;;;;21.71;51.20;99085.69;4975188;28;40773;-79
2023/05/20 07:06:12;;;;;;;7.60;6.90;;;;;;;21.62;49.49;99097.44;4960251;28;42799;-77
2023/05/20 07:08:40;;;;;;;7.93;7.20;;;;;;;21.70;50.55;99094.78;4976523;28;42625;-78
2023/05/20 07:11:10;;;;;;;6.83;6.23;;;;;;;21.79;49.53;99093.81;4976307;28;41167;-76
2023/05/20 07:13:38;;;;;;;7.67;6.97;;;;;;;21.63;49.33;99085.66;4959841;28;40624;-78
2023/05/20 07:16:06;;;;;;;6.80;6.20;;;;;;;21.70;49.34;99069.69;4976417;28;42550;-78
2023/05/20 07:18:36;;;;;;;7.00;6.30;;;;;;;21.66;49.15;99082.63;4959566;28;41292;-79
2023/05/20 07:21:04;;;;;;;7.77;6.63;;;;;;;21.79;48.65;99082.19;4960146;28;40966;-76
2023/05/20 07:23:40;;;;;;;8.07;7.20;;;;;;;22.36;48.20;99067.09;4975982;28;40532;-77
2023/05/20 07:26:08;;;;;;;6.80;6.10;;;;;;;23.08;46.57;99091.63;4959840;28;41742;-77
2023/05/20 07:28:38;;;;;;;7.57;6.80;;;;;;;23.31;46.12;99080.97;4959731;28;42890;-78
2023/05/20 07:31:06;;;;;;;6.47;5.87;;;;;;;23.43;45.96;99093.97;4976386;28;40547;-77
2023/05/20 07:33:40;;;;;;;7.93;7.23;;;;;;;23.21;45.34;99092.81;4958172;28;42059;-79
2023/05/20 07:36:07;;;;;;;7.47;6.73;;;;;;;22.93;45.70;99086.06;4958147;28;41786;-79
2023/05/20 07:38:36;;;;;;;7.53;6.83;;;;;;;22.79;46.93;99068.66;4974750;28;42336;-79
2023/05/20 07:41:07;;;;;;;8.17;7.40;;;;;;;23.35;45.61;99071.50;4972085;28;41079;-79
2023/05/20 07:43:37;;;;;;;8.47;6.53;;;;;;;23.86;44.84;99071.03;4974494;28;41632;-79
2023/05/20 07:46:05;;;;;;;7.83;7.03;;;;;;;24.28;43.97;99077.97;4974884;28;42942;-77
2023/05/20 07:48:32;;;;;;;7.60;6.20;;;;;;;24.50;43.04;99079.03;4958278;28;42413;-79
2023/05/20 07:51:01;;;;;;;7.27;6.57;;;;;;;24.76;42.16;99078.69;4958650;28;41075;-77
2023/05/20 07:53:29;;;;;;;7.70;6.93;;;;;;;24.97;42.18;99085.13;4974861;28;42501;-79
2023/05/20 07:55:57;;;;;;;7.40;6.80;;;;;;;25.42;42.43;99089.66;4958006;28;41804;-80
2023/05/20 07:58:28;;;;;;;6.47;5.97;;;;;;;25.97;41.31;99085.66;4955360;28;41236;-78
2023/05/20 08:00:58;;;;;;;7.30;6.70;;;;;;;26.72;39.61;99101.63;4958310;28;40897;-80
2023/05/20 08:03:26;;;;;;;7.57;6.87;;;;;;;27.06;39.12;99100.13;4957663;28;40893;-79
2023/05/20 08:06:11;;;;;;;7.23;6.60;;;;;;;27.29;39.57;99092.59;4974945;28;41966;-78
2023/05/20 08:08:40;;;;;;;7.30;6.50;;;;;;;27.63;38.17;99099.97;4974547;28;42294;-81
2023/05/20 08:11:19;;;;;;;7.00;6.40;;;;;;;28.35;37.92;99085.06;4959059;28;41011;-80
2023/05/20 08:13:47;;;;;;;7.17;6.47;;;;;;;29.15;34.97;99119.69;4959120;28;41532;-83
2023/05/20 08:16:18;;;;;;;7.00;6.30;;;;;;;29.91;34.33;99112.72;4975752;28;42708;-80
2023/05/20 08:18:46;;;;;;;6.40;5.80;;;;;;;30.89;33.83;99116.13;4959136;28;43268;-79
2023/05/20 08:21:14;;;;;;;6.33;5.90;;;;;;;31.35;33.48;99121.28;4975778;28;40911;-78
2023/05/20 08:23:42;;;;;;;6.97;6.37;;;;;;;31.48;32.60;99112.13;4955350;28;41823;-78
2023/05/20 08:26:10;;;;;;;8.37;6.93;;;;;;;31.37;31.43;99129.28;4972137;28;42745;-80
2023/05/20 08:28:42;;;;;;;6.90;6.30;;;;;;;30.99;31.51;99123.84;4972647;28;42336;-79
2023/05/20 08:31:10;;;;;;;7.83;6.80;;;;;;;31.54;31.68;99116.69;4959035;28;40068;-82
2023/05/20 08:33:40;;;;;;;6.33;5.83;;;;;;;31.99;31.15;99122.00;4974408;28;42483;-79
2023/05/20 08:36:08;;;;;;;5.90;5.47;;;;;;;32.25;30.52;99127.19;4964325;28;42952;-80
2023/05/20 08:38:36;;;;;;;7.17;6.53;;;;;;;32.22;29.87;99122.16;4985729;28;42936;-79
2023/05/20 08:41:03;;;;;;;7.00;5.63;;;;;;;32.99;30.40;99095.84;4962994;28;39769;-80
2023/05/20 08:43:31;;;;;;;7.10;6.50;;;;;;;33.86;27.92;99124.41;4957055;28;41740;-79
2023/05/20 08:46:01;;;;;;;7.80;6.77;;;;;;;33.78;27.04;99122.00;4990244;28;42780;-77
2023/05/20 08:48:33;;;;;;;6.60;6.00;;;;;;;33.86;27.94;99129.06;4974112;28;41521;-79
2023/05/20 08:51:04;;;;;;;6.60;5.80;;;;;;;33.72;28.05;99122.94;4974090;28;40811;-78
2023/05/20 08:53:32;;;;;;;6.20;5.70;;;;;;;33.07;29.43;99108.38;4973555;28;40415;-77
2023/05/20 08:56:01;;;;;;;7.13;6.03;;;;;;;32.45;29.54;99114.06;4991166;28;43215;-79
2023/05/20 08:58:31;;;;;;;6.73;6.13;;;;;;;31.61;29.48;99109.28;4957637;28;41480;-76
2023/05/20 09:00:59;;;;;;;6.40;5.90;;;;;;;31.00;32.92;99074.41;4957576;28;39844;-79
2023/05/20 09:03:27;;;;;;;7.13;6.43;;;;;;;30.54;31.69;99090.28;4973163;28;41624;-77
2023/05/20 09:06:06;;;;;;;6.53;6.03;;;;;;;30.18;33.52;99058.84;4957773;28;43015;-78
2023/05/20 09:08:34;;;;;;;6.17;5.67;;;;;;;30.06;33.79;99060.59;4990133;28;43085;-78
2023/05/20 09:11:02;;;;;;;6.23;5.73;;;;;;;29.98;33.40;99064.41;4974218;28;39912;-75
2023/05/20 09:13:32;;;;;;;6.43;5.80;;;;;;;29.85;34.02;99052.66;4991584;28;41900;-79
2023/05/20 09:16:01;;;;;;;7.67;6.97;;;;;;;29.80;32.61;99071.56;4974169;28;41974;-78
2023/05/20 09:18:30;;;;;;;7.10;6.40;;;;;;;29.93;34.31;99063.34;4973985;28;41298;-76
2023/05/20 09:20:58;;;;;;;7.07;6.47;;;;;;;29.95;33.40;99053.03;4958371;28;39937;-78
2023/05/20 09:23:29;;;;;;;6.57;5.87;;;;;;;29.80;34.16;99052.44;4973978;28;41902;-80
2023/05/20 09:25:57;;;;;;;6.90;6.40;;;;;;;29.67;34.32;99061.53;4969227;28;43724;-77
2023/05/20 09:28:25;;;;;;;8.40;7.27;;;;;;;29.40;33.00;99071.66;4990347;28;42139;-79
2023/05/20 09:30:58;;;;;;;7.07;6.53;;;;;;;29.36;34.47;99061.34;4990473;28;41913;-78
2023/05/20 09:33:29;;;;;;;6.80;6.23;;;;;;;29.86;33.92;99055.19;4973267;28;42106;-76
2023/05/20 09:36:04;;;;;;;7.93;7.23;;;;;;;30.13;32.14;99025.91;4973061;28;41978;-80
2023/05/20 09:38:37;;;;;;;7.37;6.60;;;;;;;30.24;32.79;99066.19;4971292;28;42375;-77
2023/05/20 09:41:08;;;;;;;7.83;6.83;;;;;;;30.29;32.47;99082.75;4987585;28;40603;-75
2023/05/20 09:43:36;;;;;;;7.73;7.03;;;;;;;29.70;32.86;99088.41;4971418;28;42737;-78
2023/05/20 09:46:05;;;;;;;8.20;6.50;;;;;;;28.86;33.72;99067.19;4956631;28;41764;-78
2023/05/20 09:48:36;;;;;;;6.97;6.37;;;;;;;28.66;34.74;99062.75;4956541;28;41058;-78
2023/05/20 09:51:06;;;;;;;7.40;6.70;;;;;;;28.59;34.41;99041.75;4972138;28;41156;-77
2023/05/20 09:53:36;;;;;;;7.73;6.67;;;;;;;28.46;34.76;99068.13;4972291;28;42080;-79
2023/05/20 09:56:05;;;;;;;7.27;6.67;;;;;;;28.72;35.49;99057.28;4969357;28;43665;-77
2023/05/20 09:58:35;;;;;;;7.57;6.97;;;;;;;30.07;34.50;99061.44;4957675;28;41180;-79
2023/05/20 10:01:03;;;;;;;7.57;6.70;;;;;;;30.84;33.10;99047.56;4983890;28;40837;-78
2023/05/20 10:03:32;;;;;;;7.53;6.67;;;;;;;30.74;32.19;99068.28;4974085;28;40751;-78
2023/05/20 10:06:19;;;;;;;8.33;7.53;;;;;;;30.17;32.62;99059.91;4996571;28;42823;-76
2023/05/20 10:09:02;;;;;;;6.40;5.80;;;;;;;30.94;33.07;99053.38;4986575;28;41177;-77
2023/05/20 10:11:42;;;;;;;6.60;6.10;;;;;;;31.49;31.43;99045.38;4976311;28;39965;-76
2023/05/20 10:14:22;;;;;;;6.77;6.27;;;;;;;32.22;31.63;99045.44;4949187;28;41029;-76
2023/05/20 10:16:54;;;;;;;7.10;6.50;;;;;;;32.67;30.46;99047.75;4994031;28;43296;-77
2023/05/20 10:19:29;;;;;;;6.67;6.17;;;;;;;33.04;29.61;99056.69;4998732;28;43278;-77
2023/05/20 10:21:58;;;;;;;6.80;6.30;;;;;;;33.99;28.67;99062.00;4982101;28;41585;-78
2023/05/20 10:24:44;;;;;;;7.37;6.60;;;;;;;35.01;26.63;99068.44;4989500;28;41912;-77
2023/05/20 10:27:14;;;;;;;6.85;6.25;;;;;;;35.56;27.57;99056.72;5001268;28;43569;-79
2023/05/20 10:29:44;;;;;;;6.37;5.87;;;;;;;35.55;28.14;99053.13;4996771;28;42425;-78
2023/05/20 10:32:11;;;;;;;7.20;6.50;;;;;;;35.16;26.85;99052.19;4986443;28;40821;-77
2023/05/20 10:34:47;;;;;;;7.10;6.60;;;;;;;34.67;26.70;99061.19;4986161;28;42107;-79
2023/05/20 10:37:25;;;;;;;6.90;6.40;;;;;;;34.55;27.66;99045.59;4983867;28;42966;-77
2023/05/20 10:40:05;;;;;;;6.72;6.22;;;;;;;34.56;26.54;99041.75;4996370;28;43357;-78
2023/05/20 10:42:33;;;;;;;7.57;6.87;;;;;;;34.27;27.45;99041.97;4969395;28;39607;-77
2023/05/20 10:45:01;;;;;;;7.13;6.53;;;;;;;34.04;28.01;99037.38;4967439;28;41793;-77
2023/05/20 10:47:29;;;;;;;7.30;6.70;;;;;;;33.88;28.71;99028.78;4972740;28;43210;-77
2023/05/20 10:49:57;;;;;;;7.57;6.27;;;;;;;33.35;27.78;99030.88;4977780;28;42508;-78
2023/05/20 10:52:25;;;;;;;6.50;5.77;;;;;;;33.04;29.48;99004.53;5002353;28;40908;-77
2023/05/20 10:54:58;;;;;;;7.37;6.67;;;;;;;33.07;29.94;99002.16;4967313;28;40634;-77
2023/05/20 10:57:27;;;;;;;8.63;6.63;;;;;;;33.38;30.05;99000.19;4988843;28;42895;-78
2023/05/20 10:59:55;;;;;;;6.93;6.33;;;;;;;33.52;28.01;99007.91;4977736;28;41366;-78
2023/05/20 11:02:25;;;;;;;9.57;6.70;;;;;;;33.39;28.87;99007.31;4968001;28;39727;-77
2023/05/20 11:04:54;;;;;;;6.57;6.00;;;;;;;33.53;29.91;99003.25;4983789;28;40909;-80
2023/05/20 11:07:26;;;;;;;7.83;7.07;;;;;;;33.02;28.51;98996.53;4926369;28;43344;-78
2023/05/20 11:09:56;;;;;;;7.50;6.90;;;;;;;33.39;30.22;99001.84;4971073;28;42578;-75
2023/05/20 11:12:24;;;;;;;7.60;6.90;;;;;;;33.03;28.59;99003.72;4980864;28;39632;-76
2023/05/20 11:14:52;;;;;;;7.03;6.33;;;;;;;32.79;30.11;98982.81;4966424;28;40676;-80
2023/05/20 11:17:20;;;;;;;7.23;6.63;;;;;;;32.71;29.14;98983.13;4999741;28;43884;-79
2023/05/20 11:19:49;;;;;;;7.20;6.53;;;;;;;32.86;30.73;98979.97;4959919;28;41594;-79
2023/05/20 11:22:16;;;;;;;6.83;6.27;;;;;;;32.78;29.28;98986.63;4980454;28;40924;-78
2023/05/20 11:24:44;;;;;;;7.00;6.40;;;;;;;33.13;30.86;98976.53;5001502;28;42680;-82
2023/05/20 11:27:14;;;;;;;7.67;7.07;;;;;;;32.99;28.82;98980.59;4968786;28;41799;-81
2023/05/20 11:29:42;;;;;;;6.63;6.03;;;;;;;32.67;29.53;98979.16;4976255;28;43310;-79
2023/05/20 11:32:10;;;;;;;6.43;5.93;;;;;;;32.40;29.08;98985.06;4979586;28;41084;-79
2023/05/20 11:34:39;;;;;;;8.40;7.63;;;;;;;32.09;29.02;98979.78;5002165;28;42015;-79
2023/05/20 11:37:08;;;;;;;7.57;6.77;;;;;;;31.81;30.28;98968.56;4983374;28;43702;-79
2023/05/20 11:39:37;;;;;;;7.87;7.03;;;;;;;31.78;30.62;98967.13;4960184;28;42735;-80
2023/05/20 11:42:05;;;;;;;7.77;7.13;;;;;;;32.29;33.22;98930.19;4974481;28;40154;-78
2023/05/20 11:44:35;;;;;;;6.83;6.33;;;;;;;32.60;30.38;98957.34;4941643;28;1278302;-79
2023/05/20 11:47:03;;;;;;;7.97;7.27;;;;;;;32.27;28.98;98966.06;4984140;28;42662;-79
2023/05/20 11:49:31;;;;;;;8.67;7.47;;;;;;;32.76;29.93;98953.13;4995930;28;42363;-81